sensor_id;sensor_type;location;lat;lon;timestamp;pressure;altitude;pressure_sealevel;temperature;humidity
12360;BME280;6244;51.460;7.090;2022-07-11T00:01:01;99152.31;;;14.16;64.99
12360;BME280;6244;51.460;7.090;2022-07-11T00:05:58;99152.63;;;14.11;64.90
12360;BME280;6244;51.460;7.090;2022-07-11T00:10:54;99140.28;;;14.12;65.05
12360;BME280;6244;51.460;7.090;2022-07-11T00:15:52;99144.94;;;14.08;65.40
12360;BME280;6244;51.460;7.090;2022-07-11T00:20:49;99151.97;;;14.08;65.42
12360;BME280;6244;51.460;7.090;2022-07-11T00:25:45;99144.72;;;14.11;65.28
12360;BME280;6244;51.460;7.090;2022-07-11T00:30:42;99145.03;;;14.07;65.43
12360;BME280;6244;51.460;7.090;2022-07-11T00:35:41;99139.00;;;14.05;65.60
12360;BME280;6244;51.460;7.090;2022-07-11T00:40:38;99135.31;;;13.95;65.70
12360;BME280;6244;51.460;7.090;2022-07-11T00:45:34;99132.66;;;13.82;65.63
12360;BME280;6244;51.460;7.090;2022-07-11T00:50:31;99144.53;;;13.75;65.96
12360;BME280;6244;51.460;7.090;2022-07-11T00:55:29;99137.03;;;13.69;66.06
12360;BME280;6244;51.460;7.090;2022-07-11T01:00:25;99133.25;;;13.61;66.07
12360;BME280;6244;51.460;7.090;2022-07-11T01:05:22;99133.50;;;13.44;66.30
12360;BME280;6244;51.460;7.090;2022-07-11T01:10:18;99124.53;;;13.34;66.49
12360;BME280;6244;51.460;7.090;2022-07-11T01:15:16;99127.22;;;13.20;66.67
12360;BME280;6244;51.460;7.090;2022-07-11T01:20:13;99132.31;;;13.09;67.09
12360;BME280;6244;51.460;7.090;2022-07-11T01:25:11;99123.69;;;13.07;67.15
12360;BME280;6244;51.460;7.090;2022-07-11T01:30:26;99129.28;;;13.15;67.31
12360;BME280;6244;51.460;7.090;2022-07-11T01:35:23;99134.72;;;13.26;67.07
12360;BME280;6244;51.460;7.090;2022-07-11T01:40:21;99134.50;;;13.29;66.86
12360;BME280;6244;51.460;7.090;2022-07-11T01:45:17;99123.97;;;13.29;67.18
12360;BME280;6244;51.460;7.090;2022-07-11T01:50:14;99115.09;;;13.17;67.16
12360;BME280;6244;51.460;7.090;2022-07-11T01:55:11;99119.66;;;13.01;67.35
12360;BME280;6244;51.460;7.090;2022-07-11T02:00:10;99117.97;;;12.86;67.54
12360;BME280;6244;51.460;7.090;2022-07-11T02:05:07;99118.75;;;12.74;67.70
12360;BME280;6244;51.460;7.090;2022-07-11T02:10:04;99105.56;;;12.61;68.17
12360;BME280;6244;51.460;7.090;2022-07-11T02:15:01;99106.47;;;12.60;68.26
12360;BME280;6244;51.460;7.090;2022-07-11T02:19:59;99109.19;;;12.59;68.51
12360;BME280;6244;51.460;7.090;2022-07-11T02:24:55;99117.66;;;12.64;68.55
12360;BME280;6244;51.460;7.090;2022-07-11T02:29:52;99117.53;;;12.80;68.58
12360;BME280;6244;51.460;7.090;2022-07-11T02:34:48;99125.66;;;13.03;68.06
12360;BME280;6244;51.460;7.090;2022-07-11T02:39:46;99119.63;;;13.15;67.87
12360;BME280;6244;51.460;7.090;2022-07-11T02:44:43;99118.47;;;13.19;67.68
12360;BME280;6244;51.460;7.090;2022-07-11T02:49:40;99124.59;;;13.20;67.71
12360;BME280;6244;51.460;7.090;2022-07-11T02:54:37;99125.03;;;13.26;67.74
12360;BME280;6244;51.460;7.090;2022-07-11T02:59:35;99124.28;;;13.24;67.78
12360;BME280;6244;51.460;7.090;2022-07-11T03:04:31;99127.75;;;13.25;67.80
12360;BME280;6244;51.460;7.090;2022-07-11T03:09:28;99124.94;;;13.28;67.71
12360;BME280;6244;51.460;7.090;2022-07-11T03:14:24;99125.50;;;13.33;67.61
12360;BME280;6244;51.460;7.090;2022-07-11T03:19:23;99124.63;;;13.32;67.56
12360;BME280;6244;51.460;7.090;2022-07-11T03:24:19;99125.13;;;13.25;68.14
12360;BME280;6244;51.460;7.090;2022-07-11T03:29:16;99134.50;;;13.29;67.72
12360;BME280;6244;51.460;7.090;2022-07-11T03:34:13;99129.34;;;13.27;67.56
12360;BME280;6244;51.460;7.090;2022-07-11T03:39:10;99133.78;;;13.27;67.51
12360;BME280;6244;51.460;7.090;2022-07-11T03:44:07;99131.78;;;13.30;67.30
12360;BME280;6244;51.460;7.090;2022-07-11T03:49:04;99134.59;;;13.27;67.34
12360;BME280;6244;51.460;7.090;2022-07-11T03:54:00;99141.38;;;13.31;67.06
12360;BME280;6244;51.460;7.090;2022-07-11T03:58:58;99144.84;;;13.32;67.16
12360;BME280;6244;51.460;7.090;2022-07-11T04:03:55;99139.38;;;13.35;67.06
12360;BME280;6244;51.460;7.090;2022-07-11T04:08:51;99138.56;;;13.34;67.15
12360;BME280;6244;51.460;7.090;2022-07-11T04:13:48;99133.50;;;13.31;67.20
12360;BME280;6244;51.460;7.090;2022-07-11T04:18:46;99135.63;;;13.39;66.80
12360;BME280;6244;51.460;7.090;2022-07-11T04:23:42;99135.41;;;13.42;66.77
12360;BME280;6244;51.460;7.090;2022-07-11T04:28:39;99148.97;;;13.36;66.98
12360;BME280;6244;51.460;7.090;2022-07-11T04:33:35;99151.22;;;13.42;66.87
12360;BME280;6244;51.460;7.090;2022-07-11T04:38:33;99148.88;;;13.37;66.85
12360;BME280;6244;51.460;7.090;2022-07-11T04:43:30;99145.00;;;13.43;67.04
12360;BME280;6244;51.460;7.090;2022-07-11T04:48:26;99157.53;;;13.52;66.32
12360;BME280;6244;51.460;7.090;2022-07-11T04:53:23;99158.41;;;13.65;66.46
12360;BME280;6244;51.460;7.090;2022-07-11T04:58:21;99156.94;;;13.61;66.30
12360;BME280;6244;51.460;7.090;2022-07-11T05:03:18;99165.03;;;13.58;66.08
12360;BME280;6244;51.460;7.090;2022-07-11T05:08:16;99166.63;;;13.60;66.19
12360;BME280;6244;51.460;7.090;2022-07-11T05:13:12;99166.50;;;13.62;65.81
12360;BME280;6244;51.460;7.090;2022-07-11T05:18:10;99167.97;;;13.53;65.99
12360;BME280;6244;51.460;7.090;2022-07-11T05:23:07;99170.72;;;13.52;66.15
12360;BME280;6244;51.460;7.090;2022-07-11T05:28:04;99178.50;;;13.53;66.02
12360;BME280;6244;51.460;7.090;2022-07-11T05:33:00;99183.56;;;13.56;65.89
12360;BME280;6244;51.460;7.090;2022-07-11T05:37:58;99183.56;;;13.56;65.84
12360;BME280;6244;51.460;7.090;2022-07-11T05:42:55;99188.72;;;13.58;65.83
12360;BME280;6244;51.460;7.090;2022-07-11T05:47:51;99188.72;;;13.58;65.78
12360;BME280;6244;51.460;7.090;2022-07-11T05:52:47;99190.75;;;13.67;65.42
12360;BME280;6244;51.460;7.090;2022-07-11T05:57:45;99190.06;;;13.77;65.47
12360;BME280;6244;51.460;7.090;2022-07-11T06:02:42;99190.59;;;13.82;65.29
12360;BME280;6244;51.460;7.090;2022-07-11T06:07:40;99196.09;;;13.92;65.20
12360;BME280;6244;51.460;7.090;2022-07-11T06:12:55;99208.88;;;14.10;65.12
12360;BME280;6244;51.460;7.090;2022-07-11T06:17:53;99207.44;;;14.19;64.86
12360;BME280;6244;51.460;7.090;2022-07-11T06:22:49;99209.78;;;14.36;64.79
12360;BME280;6244;51.460;7.090;2022-07-11T06:27:46;99222.78;;;14.64;64.95
12360;BME280;6244;51.460;7.090;2022-07-11T06:32:44;99224.34;;;14.67;64.90
12360;BME280;6244;51.460;7.090;2022-07-11T06:37:40;99220.25;;;14.75;64.74
12360;BME280;6244;51.460;7.090;2022-07-11T06:42:37;99207.13;;;14.99;64.91
12360;BME280;6244;51.460;7.090;2022-07-11T06:47:33;99212.81;;;15.05;65.35
12360;BME280;6244;51.460;7.090;2022-07-11T06:52:31;99215.03;;;14.99;65.12
12360;BME280;6244;51.460;7.090;2022-07-11T06:57:28;99220.31;;;14.99;65.04
12360;BME280;6244;51.460;7.090;2022-07-11T07:02:24;99217.69;;;14.99;64.86
12360;BME280;6244;51.460;7.090;2022-07-11T07:07:25;99231.41;;;14.91;64.92
12360;BME280;6244;51.460;7.090;2022-07-11T07:12:23;99220.34;;;14.86;64.86
12360;BME280;6244;51.460;7.090;2022-07-11T07:17:20;99229.38;;;15.07;65.10
12360;BME280;6244;51.460;7.090;2022-07-11T07:22:16;99228.88;;;15.02;64.71
12360;BME280;6244;51.460;7.090;2022-07-11T07:27:13;99221.06;;;14.88;64.61
12360;BME280;6244;51.460;7.090;2022-07-11T07:32:10;99230.38;;;14.81;64.45
12360;BME280;6244;51.460;7.090;2022-07-11T07:37:07;99226.88;;;14.68;64.30
12360;BME280;6244;51.460;7.090;2022-07-11T07:42:04;99225.63;;;14.48;64.72
12360;BME280;6244;51.460;7.090;2022-07-11T07:47:02;99230.97;;;14.34;64.97
12360;BME280;6244;51.460;7.090;2022-07-11T07:52:00;99230.56;;;14.40;65.06
12360;BME280;6244;51.460;7.090;2022-07-11T07:56:56;99232.16;;;14.56;65.14
12360;BME280;6244;51.460;7.090;2022-07-11T08:01:53;99227.84;;;14.80;64.89
12360;BME280;6244;51.460;7.090;2022-07-11T08:06:49;99226.50;;;15.10;64.67
12360;BME280;6244;51.460;7.090;2022-07-11T08:11:47;99219.94;;;15.28;64.72
12360;BME280;6244;51.460;7.090;2022-07-11T08:16:44;99225.28;;;15.99;64.75
12360;BME280;6244;51.460;7.090;2022-07-11T08:21:41;99238.16;;;16.38;65.35
12360;BME280;6244;51.460;7.090;2022-07-11T08:26:38;99245.28;;;16.49;66.13
12360;BME280;6244;51.460;7.090;2022-07-11T08:31:36;99242.03;;;16.45;66.35
12360;BME280;6244;51.460;7.090;2022-07-11T08:36:33;99246.22;;;16.13;66.60
12360;BME280;6244;51.460;7.090;2022-07-11T08:41:31;99248.34;;;15.97;65.06
12360;BME280;6244;51.460;7.090;2022-07-11T08:46:28;99239.28;;;15.88;64.50
12360;BME280;6244;51.460;7.090;2022-07-11T08:51:27;99250.34;;;16.52;65.09
12360;BME280;6244;51.460;7.090;2022-07-11T08:56:24;99257.97;;;16.67;66.59
12360;BME280;6244;51.460;7.090;2022-07-11T09:01:27;99256.00;;;16.47;66.69
12360;BME280;6244;51.460;7.090;2022-07-11T09:06:24;99249.88;;;15.99;65.53
12360;BME280;6244;51.460;7.090;2022-07-11T09:11:22;99252.69;;;15.62;64.50
12360;BME280;6244;51.460;7.090;2022-07-11T09:16:19;99245.06;;;15.34;64.35
12360;BME280;6244;51.460;7.090;2022-07-11T09:21:15;99237.38;;;15.31;64.35
12360;BME280;6244;51.460;7.090;2022-07-11T09:26:31;99246.44;;;15.39;64.23
12360;BME280;6244;51.460;7.090;2022-07-11T09:31:28;99238.50;;;15.27;64.40
12360;BME280;6244;51.460;7.090;2022-07-11T09:36:40;99229.84;;;15.37;64.49
12360;BME280;6244;51.460;7.090;2022-07-11T09:41:38;99235.28;;;15.59;64.37
12360;BME280;6244;51.460;7.090;2022-07-11T09:46:35;99234.28;;;16.31;65.00
12360;BME280;6244;51.460;7.090;2022-07-11T09:51:33;99232.47;;;17.10;69.01
12360;BME280;6244;51.460;7.090;2022-07-11T09:56:32;99241.03;;;17.14;70.75
12360;BME280;6244;51.460;7.090;2022-07-11T10:01:31;99249.94;;;17.13;69.01
12360;BME280;6244;51.460;7.090;2022-07-11T10:06:28;99247.78;;;17.07;70.06
12360;BME280;6244;51.460;7.090;2022-07-11T10:11:24;99249.91;;;16.80;68.36
12360;BME280;6244;51.460;7.090;2022-07-11T10:16:25;99250.13;;;16.55;66.84
12360;BME280;6244;51.460;7.090;2022-07-11T10:21:29;99245.47;;;16.35;66.14
12360;BME280;6244;51.460;7.090;2022-07-11T10:26:34;99251.09;;;16.30;65.71
12360;BME280;6244;51.460;7.090;2022-07-11T10:31:32;99249.50;;;16.51;66.39
12360;BME280;6244;51.460;7.090;2022-07-11T10:36:32;99257.88;;;16.91;67.45
12360;BME280;6244;51.460;7.090;2022-07-11T10:41:29;99258.22;;;16.86;68.58
12360;BME280;6244;51.460;7.090;2022-07-11T10:46:26;99261.59;;;17.10;70.76
12360;BME280;6244;51.460;7.090;2022-07-11T10:51:25;99264.50;;;17.29;70.81
12360;BME280;6244;51.460;7.090;2022-07-11T10:56:48;99268.94;;;17.40;70.31
12360;BME280;6244;51.460;7.090;2022-07-11T11:02:10;99262.69;;;17.41;70.29
12360;BME280;6244;51.460;7.090;2022-07-11T11:07:26;99269.31;;;17.35;70.79
12360;BME280;6244;51.460;7.090;2022-07-11T11:17:55;99274.75;;;17.01;71.52
12360;BME280;6244;51.460;7.090;2022-07-11T11:23:07;99277.97;;;16.82;68.33
12360;BME280;6244;51.460;7.090;2022-07-11T11:28:04;99279.41;;;16.86;67.69
12360;BME280;6244;51.460;7.090;2022-07-11T11:33:15;99271.97;;;17.02;69.13
12360;BME280;6244;51.460;7.090;2022-07-11T11:38:12;99280.88;;;17.23;69.09
12360;BME280;6244;51.460;7.090;2022-07-11T11:43:18;99278.84;;;17.16;70.01
12360;BME280;6244;51.460;7.090;2022-07-11T11:48:27;99280.38;;;17.18;69.06
12360;BME280;6244;51.460;7.090;2022-07-11T11:53:25;99283.03;;;17.29;71.84
12360;BME280;6244;51.460;7.090;2022-07-11T11:58:21;99285.06;;;17.26;71.42
12360;BME280;6244;51.460;7.090;2022-07-11T12:03:18;99283.13;;;17.39;72.00
12360;BME280;6244;51.460;7.090;2022-07-11T12:08:26;99275.63;;;17.88;72.69
12360;BME280;6244;51.460;7.090;2022-07-11T12:13:22;99260.81;;;18.49;76.24
12360;BME280;6244;51.460;7.090;2022-07-11T12:18:19;99273.84;;;19.02;79.92
12360;BME280;6244;51.460;7.090;2022-07-11T12:23:17;99274.34;;;19.17;82.24
12360;BME280;6244;51.460;7.090;2022-07-11T12:28:16;99277.41;;;19.12;82.45
12360;BME280;6244;51.460;7.090;2022-07-11T12:33:13;99274.28;;;19.07;83.66
12360;BME280;6244;51.460;7.090;2022-07-11T12:38:10;99267.75;;;19.11;81.99
12360;BME280;6244;51.460;7.090;2022-07-11T12:43:06;99269.59;;;19.41;86.04
12360;BME280;6244;51.460;7.090;2022-07-11T12:48:37;99255.66;;;19.58;87.59
12360;BME280;6244;51.460;7.090;2022-07-11T12:53:34;99253.69;;;19.50;89.36
12360;BME280;6244;51.460;7.090;2022-07-11T12:58:37;99257.03;;;18.92;86.32
12360;BME280;6244;51.460;7.090;2022-07-11T13:03:35;99260.13;;;18.97;87.15
12360;BME280;6244;51.460;7.090;2022-07-11T13:08:33;99250.41;;;18.57;81.99
12360;BME280;6244;51.460;7.090;2022-07-11T13:13:40;99259.97;;;18.69;80.43
12360;BME280;6244;51.460;7.090;2022-07-11T13:18:38;99258.88;;;18.51;80.83
12360;BME280;6244;51.460;7.090;2022-07-11T13:23:36;99256.28;;;17.76;76.17
12360;BME280;6244;51.460;7.090;2022-07-11T13:28:33;99269.16;;;17.70;74.72
12360;BME280;6244;51.460;7.090;2022-07-11T13:33:30;99269.44;;;17.98;74.29
12360;BME280;6244;51.460;7.090;2022-07-11T13:38:28;99272.78;;;18.43;75.67
12360;BME280;6244;51.460;7.090;2022-07-11T13:43:25;99262.81;;;18.56;75.67
12360;BME280;6244;51.460;7.090;2022-07-11T13:48:21;99259.28;;;18.35;78.63
12360;BME280;6244;51.460;7.090;2022-07-11T13:53:18;99252.19;;;18.04;74.29
12360;BME280;6244;51.460;7.090;2022-07-11T13:58:16;99260.06;;;18.26;74.38
12360;BME280;6244;51.460;7.090;2022-07-11T14:03:22;99255.78;;;18.46;75.32
12360;BME280;6244;51.460;7.090;2022-07-11T14:08:19;99271.91;;;18.54;78.87
12360;BME280;6244;51.460;7.090;2022-07-11T14:13:18;99268.97;;;18.57;80.52
12360;BME280;6244;51.460;7.090;2022-07-11T14:18:15;99264.22;;;18.60;83.00
12360;BME280;6244;51.460;7.090;2022-07-11T14:23:11;99262.69;;;18.58;77.83
12360;BME280;6244;51.460;7.090;2022-07-11T14:28:08;99276.06;;;18.77;80.02
12360;BME280;6244;51.460;7.090;2022-07-11T14:33:06;99274.63;;;18.93;79.95
12360;BME280;6244;51.460;7.090;2022-07-11T14:38:03;99278.16;;;18.73;80.62
12360;BME280;6244;51.460;7.090;2022-07-11T14:42:59;99263.84;;;18.85;80.58
12360;BME280;6244;51.460;7.090;2022-07-11T14:47:56;99268.03;;;19.08;81.77
12360;BME280;6244;51.460;7.090;2022-07-11T14:52:54;99267.06;;;18.89;83.85
12360;BME280;6244;51.460;7.090;2022-07-11T14:57:52;99262.28;;;19.33;82.85
12360;BME280;6244;51.460;7.090;2022-07-11T15:02:48;99264.03;;;19.63;85.38
12360;BME280;6244;51.460;7.090;2022-07-11T15:08:04;99252.47;;;19.83;85.78
12360;BME280;6244;51.460;7.090;2022-07-11T15:13:18;99259.47;;;19.94;86.47
12360;BME280;6244;51.460;7.090;2022-07-11T15:18:15;99259.38;;;20.05;85.45
12360;BME280;6244;51.460;7.090;2022-07-11T15:23:13;99258.38;;;20.06;84.37
12360;BME280;6244;51.460;7.090;2022-07-11T15:28:10;99264.97;;;20.02;88.14
12360;BME280;6244;51.460;7.090;2022-07-11T15:33:06;99267.22;;;20.25;89.09
12360;BME280;6244;51.460;7.090;2022-07-11T15:38:03;99266.53;;;20.14;89.24
12360;BME280;6244;51.460;7.090;2022-07-11T15:43:01;99270.25;;;19.92;88.16
12360;BME280;6244;51.460;7.090;2022-07-11T15:47:57;99263.84;;;19.95;85.06
12360;BME280;6244;51.460;7.090;2022-07-11T15:52:54;99260.50;;;20.40;87.95
12360;BME280;6244;51.460;7.090;2022-07-11T15:57:51;99259.59;;;20.97;90.94
12360;BME280;6244;51.460;7.090;2022-07-11T16:02:49;99262.34;;;21.14;92.30
12360;BME280;6244;51.460;7.090;2022-07-11T16:07:46;99259.78;;;20.67;81.21
12360;BME280;6244;51.460;7.090;2022-07-11T16:12:42;99253.50;;;20.39;79.86
12360;BME280;6244;51.460;7.090;2022-07-11T16:17:39;99257.56;;;20.43;80.11
12360;BME280;6244;51.460;7.090;2022-07-11T16:22:38;99251.50;;;20.79;80.06
12360;BME280;6244;51.460;7.090;2022-07-11T16:27:36;99260.44;;;20.88;81.52
12360;BME280;6244;51.460;7.090;2022-07-11T16:32:32;99255.31;;;20.48;79.18
12360;BME280;6244;51.460;7.090;2022-07-11T16:37:29;99247.78;;;20.15;77.07
12360;BME280;6244;51.460;7.090;2022-07-11T16:42:27;99236.22;;;19.86;78.41
12360;BME280;6244;51.460;7.090;2022-07-11T16:47:40;99240.31;;;19.90;76.08
12360;BME280;6244;51.460;7.090;2022-07-11T16:52:37;99243.66;;;19.92;76.18
12360;BME280;6244;51.460;7.090;2022-07-11T16:57:36;99237.38;;;19.84;75.67
12360;BME280;6244;51.460;7.090;2022-07-11T17:02:33;99236.63;;;19.72;75.56
12360;BME280;6244;51.460;7.090;2022-07-11T17:07:30;99233.66;;;19.56;73.74
12360;BME280;6244;51.460;7.090;2022-07-11T17:12:27;99223.13;;;19.45;71.71
12360;BME280;6244;51.460;7.090;2022-07-11T17:17:25;99219.75;;;19.33;71.67
12360;BME280;6244;51.460;7.090;2022-07-11T17:22:21;99210.81;;;19.34;71.32
12360;BME280;6244;51.460;7.090;2022-07-11T17:27:18;99212.44;;;19.26;69.58
12360;BME280;6244;51.460;7.090;2022-07-11T17:32:14;99211.84;;;19.13;67.94
12360;BME280;6244;51.460;7.090;2022-07-11T17:37:12;99206.94;;;19.08;67.48
12360;BME280;6244;51.460;7.090;2022-07-11T17:42:09;99209.81;;;19.05;68.70
12360;BME280;6244;51.460;7.090;2022-07-11T17:47:06;99213.06;;;19.09;68.09
12360;BME280;6244;51.460;7.090;2022-07-11T17:52:03;99211.81;;;19.03;70.90
12360;BME280;6244;51.460;7.090;2022-07-11T17:57:02;99208.66;;;18.89;67.58
12360;BME280;6244;51.460;7.090;2022-07-11T18:01:59;99218.66;;;18.76;68.00
12360;BME280;6244;51.460;7.090;2022-07-11T18:06:55;99209.47;;;18.59;65.47
12360;BME280;6244;51.460;7.090;2022-07-11T18:11:52;99212.59;;;18.44;63.88
12360;BME280;6244;51.460;7.090;2022-07-11T18:16:50;99212.56;;;18.23;62.03
12360;BME280;6244;51.460;7.090;2022-07-11T18:21:47;99206.53;;;18.01;61.02
12360;BME280;6244;51.460;7.090;2022-07-11T18:26:44;99207.59;;;17.77;59.44
12360;BME280;6244;51.460;7.090;2022-07-11T18:31:40;99203.44;;;17.53;58.59
12360;BME280;6244;51.460;7.090;2022-07-11T18:36:38;99202.84;;;17.38;58.56
12360;BME280;6244;51.460;7.090;2022-07-11T18:41:35;99197.94;;;17.23;58.10
12360;BME280;6244;51.460;7.090;2022-07-11T18:46:33;99196.38;;;16.98;57.66
12360;BME280;6244;51.460;7.090;2022-07-11T18:51:32;99204.56;;;16.73;57.33
12360;BME280;6244;51.460;7.090;2022-07-11T18:56:31;99201.19;;;16.49;57.70
12360;BME280;6244;51.460;7.090;2022-07-11T19:01:28;99202.78;;;16.28;58.29
12360;BME280;6244;51.460;7.090;2022-07-11T19:06:25;99206.09;;;16.08;59.27
12360;BME280;6244;51.460;7.090;2022-07-11T19:11:21;99205.53;;;15.92;60.25
12360;BME280;6244;51.460;7.090;2022-07-11T19:16:19;99198.28;;;15.83;61.00
12360;BME280;6244;51.460;7.090;2022-07-11T19:21:16;99197.59;;;15.81;60.62
12360;BME280;6244;51.460;7.090;2022-07-11T19:26:13;99196.34;;;15.74;60.70
12360;BME280;6244;51.460;7.090;2022-07-11T19:31:10;99200.72;;;15.62;61.24
12360;BME280;6244;51.460;7.090;2022-07-11T19:36:09;99195.72;;;15.47;61.49
12360;BME280;6244;51.460;7.090;2022-07-11T19:41:06;99200.06;;;15.35;62.11
12360;BME280;6244;51.460;7.090;2022-07-11T19:46:03;99204.09;;;15.28;62.43
12360;BME280;6244;51.460;7.090;2022-07-11T19:50:59;99214.16;;;15.23;62.89
12360;BME280;6244;51.460;7.090;2022-07-11T19:55:58;99212.38;;;15.11;62.73
12360;BME280;6244;51.460;7.090;2022-07-11T20:01:20;99205.66;;;14.95;63.07
12360;BME280;6244;51.460;7.090;2022-07-11T20:06:16;99208.97;;;14.86;64.17
12360;BME280;6244;51.460;7.090;2022-07-11T20:11:14;99211.28;;;14.78;64.49
12360;BME280;6244;51.460;7.090;2022-07-11T20:16:11;99213.59;;;14.70;64.68
12360;BME280;6244;51.460;7.090;2022-07-11T20:21:08;99222.78;;;14.64;65.07
12360;BME280;6244;51.460;7.090;2022-07-11T20:26:04;99229.94;;;14.62;65.59
12360;BME280;6244;51.460;7.090;2022-07-11T20:31:02;99225.63;;;14.48;65.93
12360;BME280;6244;51.460;7.090;2022-07-11T20:35:59;99233.63;;;14.47;66.06
12360;BME280;6244;51.460;7.090;2022-07-11T20:40:57;99233.44;;;14.50;66.27
12360;BME280;6244;51.460;7.090;2022-07-11T20:45:55;99236.59;;;14.55;66.21
12360;BME280;6244;51.460;7.090;2022-07-11T20:50:53;99239.31;;;14.66;66.66
12360;BME280;6244;51.460;7.090;2022-07-11T20:55:49;99246.19;;;14.56;66.75
12360;BME280;6244;51.460;7.090;2022-07-11T21:00:46;99243.88;;;14.52;66.92
12360;BME280;6244;51.460;7.090;2022-07-11T21:05:42;99241.22;;;14.39;67.06
12360;BME280;6244;51.460;7.090;2022-07-11T21:10:40;99243.16;;;14.23;67.20
12360;BME280;6244;51.460;7.090;2022-07-11T21:15:37;99237.34;;;14.18;67.71
12360;BME280;6244;51.460;7.090;2022-07-11T21:20:34;99240.75;;;14.20;67.67
12360;BME280;6244;51.460;7.090;2022-07-11T21:25:30;99239.56;;;14.11;67.96
12360;BME280;6244;51.460;7.090;2022-07-11T21:30:28;99246.72;;;14.09;67.81
12360;BME280;6244;51.460;7.090;2022-07-11T21:35:25;99251.34;;;14.06;67.96
12360;BME280;6244;51.460;7.090;2022-07-11T21:40:21;99246.84;;;14.08;67.64
12360;BME280;6244;51.460;7.090;2022-07-11T21:45:18;99258.28;;;13.94;67.79
12360;BME280;6244;51.460;7.090;2022-07-11T21:50:16;99250.22;;;13.83;68.18
12360;BME280;6244;51.460;7.090;2022-07-11T21:55:13;99253.50;;;13.87;67.89
12360;BME280;6244;51.460;7.090;2022-07-11T22:00:11;99251.38;;;13.79;67.81
12360;BME280;6244;51.460;7.090;2022-07-11T22:05:10;99252.19;;;13.67;68.07
12360;BME280;6244;51.460;7.090;2022-07-11T22:10:08;99256.03;;;13.62;68.28
12360;BME280;6244;51.460;7.090;2022-07-11T22:15:08;99245.91;;;13.56;68.43
12360;BME280;6244;51.460;7.090;2022-07-11T22:20:05;99252.00;;;13.56;68.55
12360;BME280;6244;51.460;7.090;2022-07-11T22:25:02;99244.31;;;13.53;68.23
12360;BME280;6244;51.460;7.090;2022-07-11T22:30:00;99248.53;;;13.56;68.27
12360;BME280;6244;51.460;7.090;2022-07-11T22:34:57;99248.28;;;13.46;68.24
12360;BME280;6244;51.460;7.090;2022-07-11T22:39:53;99258.34;;;13.40;68.23
12360;BME280;6244;51.460;7.090;2022-07-11T22:44:50;99249.28;;;13.31;68.51
12360;BME280;6244;51.460;7.090;2022-07-11T22:49:48;99253.69;;;13.17;68.84
12360;BME280;6244;51.460;7.090;2022-07-11T22:54:45;99260.09;;;13.13;69.21
12360;BME280;6244;51.460;7.090;2022-07-11T22:59:41;99265.72;;;13.21;68.93
12360;BME280;6244;51.460;7.090;2022-07-11T23:04:38;99262.91;;;13.24;68.68
12360;BME280;6244;51.460;7.090;2022-07-11T23:09:36;99264.88;;;13.20;68.58
12360;BME280;6244;51.460;7.090;2022-07-11T23:14:32;99263.16;;;13.19;68.33
12360;BME280;6244;51.460;7.090;2022-07-11T23:19:29;99265.16;;;13.16;68.50
12360;BME280;6244;51.460;7.090;2022-07-11T23:24:25;99266.28;;;13.12;68.18
12360;BME280;6244;51.460;7.090;2022-07-11T23:29:23;99269.00;;;13.10;68.44
12360;BME280;6244;51.460;7.090;2022-07-11T23:34:20;99264.59;;;13.11;68.40
12360;BME280;6244;51.460;7.090;2022-07-11T23:39:16;99272.78;;;13.06;68.61
12360;BME280;6244;51.460;7.090;2022-07-11T23:44:13;99265.41;;;12.97;68.59
12360;BME280;6244;51.460;7.090;2022-07-11T23:49:11;99265.03;;;12.89;68.50
12360;BME280;6244;51.460;7.090;2022-07-11T23:54:08;99263.53;;;12.85;68.64
12360;BME280;6244;51.460;7.090;2022-07-11T23:59:04;99243.84;;;12.78;68.60
